Time;durP1;ratioP1;P1;durP2;ratioP2;P2;SDS_P1;SDS_P2;PMS_P1;PMS_P2;Temp;Humidity;BMP_temperature;BMP_pressure;BME280_temperature;BME280_humidity;BME280_pressure;Samples;Min_cycle;Max_cycle;Signal;HPM_P1;HPM_P2
2022/04/21 00:03:37;;;;;;;5.57;3.20;;;14.30;56.30;;;;;;4951610;28;20453;-81
2022/04/21 00:06:30;;;;;;;4.63;3.00;;;14.40;56.00;;;;;;4948715;28;20476;-80
2022/04/21 00:08:57;;;;;;;4.17;3.87;;;14.40;56.10;;;;;;4927182;28;20483;-79
2022/04/21 00:11:23;;;;;;;2.93;2.57;;;14.50;56.00;;;;;;4930282;28;21059;-82
2022/04/21 00:13:50;;;;;;;3.73;2.97;;;14.40;55.80;;;;;;4950902;28;20528;-81
2022/04/21 00:16:18;;;;;;;4.63;3.13;;;14.30;56.10;;;;;;4929796;28;20460;-81
2022/04/21 00:18:46;;;;;;;3.03;2.83;;;14.30;56.40;;;;;;4929103;28;21012;-81
2022/04/21 00:21:13;;;;;;;4.37;2.63;;;14.10;56.60;;;;;;4930333;28;20488;-81
2022/04/21 00:23:39;;;;;;;3.10;2.80;;;14.10;56.90;;;;;;4932481;28;20926;-80
2022/04/21 00:26:07;;;;;;;5.00;2.90;;;14.10;57.00;;;;;;4947892;28;20485;-81
2022/04/21 00:28:33;;;;;;;2.93;2.60;;;14.00;56.70;;;;;;4932984;28;20472;-81
2022/04/21 00:31:00;;;;;;;3.10;2.80;;;13.80;56.90;;;;;;4955757;28;20469;-80
2022/04/21 00:33:27;;;;;;;4.40;2.73;;;13.70;57.40;;;;;;4939242;28;21398;-80
2022/04/21 00:35:54;;;;;;;3.03;2.50;;;13.70;57.60;;;;;;4954682;28;20472;-81
2022/04/21 00:38:21;;;;;;;3.27;2.70;;;13.70;57.70;;;;;;4954774;28;20480;-80
2022/04/21 00:40:49;;;;;;;4.20;2.93;;;13.70;57.50;;;;;;4941447;28;20468;-81
2022/04/21 00:43:16;;;;;;;4.23;2.70;;;13.80;57.50;;;;;;4938586;28;20429;-79
2022/04/21 00:45:44;;;;;;;2.93;2.73;;;13.90;57.60;;;;;;4941557;28;20495;-81
2022/04/21 00:48:12;;;;;;;3.87;3.40;;;13.80;57.50;;;;;;4937602;28;20473;-80
2022/04/21 00:50:39;;;;;;;2.87;2.67;;;13.80;58.10;;;;;;4940998;28;20536;-81
2022/04/21 00:53:07;;;;;;;2.90;2.53;;;13.80;57.50;;;;;;4956084;28;20499;-81
2022/04/21 00:55:38;;;;;;;2.73;2.53;;;13.80;57.80;;;;;;4940774;28;20461;-81
2022/04/21 00:58:07;;;;;;;3.20;2.87;;;13.90;57.70;;;;;;4941140;28;20484;-80
2022/04/21 01:00:34;;;;;;;2.73;2.50;;;13.90;57.80;;;;;;4941113;28;20485;-80
2022/04/21 01:03:02;;;;;;;3.10;2.83;;;13.90;57.60;;;;;;4939129;28;20492;-81
2022/04/21 01:05:33;;;;;;;3.47;2.87;;;13.90;57.60;;;;;;4954601;28;20466;-80
2022/04/21 01:08:02;;;;;;;4.57;2.80;;;13.80;57.70;;;;;;4938587;28;22010;-80
2022/04/21 01:10:31;;;;;;;2.90;2.60;;;13.80;57.90;;;;;;4935028;28;20469;-81
2022/04/21 01:12:59;;;;;;;5.50;3.50;;;13.80;57.90;;;;;;4948861;28;20461;-82
2022/04/21 01:15:26;;;;;;;3.03;2.80;;;13.90;58.10;;;;;;4951678;28;20457;-81
2022/04/21 01:17:54;;;;;;;3.03;2.83;;;13.90;57.70;;;;;;4934543;28;20595;-80
2022/04/21 01:20:22;;;;;;;3.40;3.10;;;14.00;57.90;;;;;;4952690;28;20540;-81
2022/04/21 01:22:50;;;;;;;3.43;3.00;;;14.00;57.70;;;;;;4934107;28;20568;-81
2022/04/21 01:25:18;;;;;;;4.03;3.27;;;13.90;57.80;;;;;;4930962;28;20492;-82
2022/04/21 01:27:46;;;;;;;2.70;2.50;;;13.90;57.70;;;;;;4947307;28;20492;-81
2022/04/21 01:30:14;;;;;;;5.03;2.83;;;14.00;57.90;;;;;;4946008;28;20485;-80
2022/04/21 01:32:48;;;;;;;3.67;3.37;;;13.90;57.90;;;;;;4935469;28;20468;-81
2022/04/21 01:35:15;;;;;;;4.23;3.17;;;14.00;57.70;;;;;;4957866;28;20460;-81
2022/04/21 01:43:15;;;;;;;3.57;3.27;;;13.80;57.70;;;;;;4965653;28;20468;-80
2022/04/21 01:45:43;;;;;;;3.10;2.90;;;13.80;58.00;;;;;;4949659;28;20487;-80
2022/04/21 01:48:11;;;;;;;3.40;3.20;;;13.60;58.20;;;;;;4947966;28;20561;-81
2022/04/21 01:50:38;;;;;;;3.70;3.00;;;13.70;58.50;;;;;;4965317;28;20485;-81
2022/04/21 01:53:08;;;;;;;5.43;3.30;;;13.60;58.50;;;;;;4949336;28;20469;-80
2022/04/21 01:55:40;;;;;;;3.30;3.00;;;13.60;58.60;;;;;;4949004;28;20453;-80
2022/04/21 01:58:23;;;;;;;6.03;3.40;;;13.70;58.30;;;;;;4941942;28;20461;-81
2022/04/21 02:00:58;;;;;;;3.43;3.03;;;13.70;58.10;;;;;;4947331;28;20472;-80
2022/04/21 02:03:32;;;;;;;3.50;3.20;;;13.70;58.20;;;;;;4962767;28;20625;-79
2022/04/21 02:06:31;;;;;;;3.50;3.20;;;13.70;58.40;;;;;;4946089;28;20471;-81
2022/04/21 02:09:05;;;;;;;3.60;3.30;;;13.70;58.50;;;;;;4966241;28;20472;-80
2022/04/21 02:11:34;;;;;;;4.20;3.50;;;13.70;58.40;;;;;;4968362;28;20457;-80
2022/04/21 02:14:03;;;;;;;6.00;5.43;;;13.80;58.20;;;;;;4968087;28;20528;-80
2022/04/21 02:16:39;;;;;;;4.17;3.87;;;13.80;58.30;;;;;;4967646;28;20447;-79
2022/04/21 02:19:27;;;;;;;3.40;3.10;;;13.70;58.00;;;;;;4971661;28;20483;-81
2022/04/21 02:21:59;;;;;;;4.70;3.63;;;13.70;58.50;;;;;;4955920;28;20445;-82
2022/04/21 02:24:33;;;;;;;4.00;3.00;;;13.60;58.60;;;;;;4940368;28;20508;-82
2022/04/21 02:27:37;;;;;;;3.80;3.50;;;13.50;58.90;;;;;;4958932;28;20539;-81
2022/04/21 02:30:08;;;;;;;3.30;3.00;;;13.50;59.00;;;;;;4948709;28;20494;-81
2022/04/21 02:32:35;;;;;;;3.77;3.47;;;13.60;59.20;;;;;;4972401;28;20463;-80
2022/04/21 02:35:09;;;;;;;4.10;3.73;;;13.60;58.70;;;;;;4972018;28;20461;-80
2022/04/21 02:37:37;;;;;;;5.80;2.97;;;13.40;58.90;;;;;;4953517;28;20459;-80
2022/04/21 02:40:06;;;;;;;3.17;2.97;;;13.50;59.30;;;;;;4952412;28;20502;-81
2022/04/21 02:42:33;;;;;;;5.53;3.90;;;13.60;59.40;;;;;;4963468;28;20524;-80
2022/04/21 02:45:00;;;;;;;3.43;3.17;;;13.50;59.40;;;;;;4960766;28;20470;-81
2022/04/21 02:47:28;;;;;;;4.10;3.20;;;13.50;59.60;;;;;;4959872;28;20455;-81
2022/04/21 02:49:55;;;;;;;5.53;3.83;;;13.50;59.80;;;;;;4962472;28;20479;-81
2022/04/21 02:52:21;;;;;;;3.33;3.13;;;13.50;60.00;;;;;;4961163;28;21692;-81
2022/04/21 02:57:34;;;;;;;3.67;3.37;;;13.60;60.70;;;;;;4960911;28;20453;-80
2022/04/21 03:00:05;;;;;;;7.90;3.50;;;13.60;60.40;;;;;;4959105;28;20959;-82
2022/04/21 03:02:32;;;;;;;3.83;3.53;;;13.50;60.50;;;;;;4953673;28;20436;-81
2022/04/21 03:04:59;;;;;;;3.70;3.40;;;13.50;60.60;;;;;;4937770;28;20480;-79
2022/04/21 03:07:28;;;;;;;4.83;3.80;;;13.50;60.70;;;;;;4930236;28;20500;-81
2022/04/21 03:09:55;;;;;;;3.70;3.40;;;13.40;61.00;;;;;;4930559;28;20511;-80
2022/04/21 03:12:23;;;;;;;4.30;3.27;;;13.50;61.20;;;;;;4926569;28;20501;-82
2022/04/21 03:14:49;;;;;;;3.87;3.40;;;13.40;60.80;;;;;;4927158;28;20547;-83
2022/04/21 03:17:16;;;;;;;4.50;3.70;;;13.50;60.90;;;;;;4942298;28;20456;-81
2022/04/21 03:19:43;;;;;;;4.03;3.63;;;13.40;61.00;;;;;;4929722;28;20480;-79
2022/04/21 03:25:03;;;;;;;3.57;3.27;;;13.50;61.50;;;;;;4942654;28;21214;-81
2022/04/21 03:27:29;;;;;;;6.03;3.17;;;13.50;60.90;;;;;;4945788;28;20487;-82
2022/04/21 03:29:57;;;;;;;3.13;2.83;;;13.70;59.90;;;;;;4925420;28;20489;-82
2022/04/21 03:32:25;;;;;;;5.00;3.47;;;13.50;59.60;;;;;;4945853;28;20465;-82
2022/04/21 03:34:53;;;;;;;3.97;3.60;;;13.30;59.90;;;;;;4945035;28;20469;-80
2022/04/21 03:37:21;;;;;;;4.87;3.90;;;13.20;60.80;;;;;;4952109;28;20461;-83
2022/04/21 03:39:48;;;;;;;4.40;3.50;;;13.20;61.50;;;;;;4942358;28;20523;-81
2022/04/21 03:42:31;;;;;;;3.93;3.60;;;13.20;62.20;;;;;;4921943;28;20468;-80
2022/04/21 03:44:59;;;;;;;4.97;4.00;;;13.20;63.00;;;;;;4925258;28;20476;-81
2022/04/21 03:47:27;;;;;;;3.90;3.60;;;13.20;63.50;;;;;;4935346;28;20499;-82
2022/04/21 03:49:53;;;;;;;5.67;3.80;;;13.20;63.50;;;;;;4939336;28;20909;-82
2022/04/21 03:52:20;;;;;;;3.80;3.37;;;13.20;63.40;;;;;;4939467;28;20464;-81
2022/04/21 03:54:47;;;;;;;7.03;3.70;;;13.20;63.10;;;;;;4922582;28;20519;-81
2022/04/21 03:57:13;;;;;;;4.13;3.77;;;13.20;62.90;;;;;;4937834;28;20460;-80
2022/04/21 03:59:40;;;;;;;3.40;3.10;;;13.20;62.40;;;;;;4942058;28;20477;-80
2022/04/21 04:02:07;;;;;;;6.97;4.00;;;13.40;61.80;;;;;;4924754;28;20472;-80
2022/04/21 04:04:36;;;;;;;7.10;3.73;;;13.30;61.70;;;;;;4921812;28;20484;-82
2022/04/21 04:12:37;;;;;;;4.17;3.70;;;13.10;61.60;;;;;;4939332;28;20460;-82
2022/04/21 04:15:07;;;;;;;6.83;3.80;;;13.00;61.90;;;;;;4922519;28;20465;-80
2022/04/21 04:17:33;;;;;;;4.07;3.67;;;13.00;62.10;;;;;;4937185;28;20476;-81
2022/04/21 04:20:00;;;;;;;4.00;3.70;;;13.00;62.10;;;;;;4938917;28;20498;-80
2022/04/21 04:22:27;;;;;;;4.20;3.80;;;13.10;62.50;;;;;;4939654;28;20616;-81
2022/04/21 04:24:55;;;;;;;4.70;4.30;;;13.20;62.80;;;;;;4940652;28;20457;-83
2022/04/21 04:27:22;;;;;;;9.23;7.20;;;13.10;63.10;;;;;;4939710;28;20512;-80
2022/04/21 04:29:50;;;;;;;5.83;3.43;;;13.10;63.50;;;;;;4924198;28;20473;-81
2022/04/21 04:32:16;;;;;;;8.00;3.67;;;13.00;63.80;;;;;;4940163;28;20457;-82
2022/04/21 04:34:43;;;;;;;5.47;3.90;;;13.00;64.60;;;;;;4921868;28;20461;-81
2022/04/21 04:37:10;;;;;;;5.00;3.90;;;13.00;65.20;;;;;;4935164;28;20459;-81
2022/04/21 04:39:37;;;;;;;5.70;4.00;;;13.00;66.00;;;;;;4924819;28;20507;-82
2022/04/21 04:42:16;;;;;;;8.13;4.53;;;13.00;67.20;;;;;;4933741;28;20468;-81
2022/04/21 04:44:49;;;;;;;4.47;4.07;;;12.90;67.50;;;;;;4944923;28;20540;-81
2022/04/21 04:47:16;;;;;;;6.53;4.37;;;13.00;68.00;;;;;;4942099;28;20515;-81
2022/04/21 04:49:43;;;;;;;4.33;3.93;;;12.90;68.60;;;;;;4989746;23;20497;-81
2022/04/21 04:52:10;;;;;;;4.13;3.73;;;12.90;69.00;;;;;;4926568;28;20464;-80
2022/04/21 04:54:36;;;;;;;7.53;4.87;;;13.00;69.30;;;;;;4925158;28;20706;-80
2022/04/21 04:57:03;;;;;;;5.93;4.07;;;13.10;69.80;;;;;;4947880;28;20461;-81
2022/04/21 04:59:30;;;;;;;4.43;3.90;;;13.20;70.50;;;;;;4915996;29;20521;-80
2022/04/21 05:01:57;;;;;;;5.40;3.93;;;13.10;70.90;;;;;;4920027;29;20465;-81
2022/04/21 05:04:25;;;;;;;6.23;3.90;;;13.10;71.30;;;;;;4922190;29;20474;-80
2022/04/21 05:06:54;;;;;;;6.90;4.10;;;13.20;71.20;;;;;;4922376;29;20486;-80
2022/04/21 05:09:23;;;;;;;5.70;3.90;;;13.20;71.20;;;;;;4916667;29;20572;-79
2022/04/21 05:11:52;;;;;;;6.33;3.70;;;13.20;70.50;;;;;;4917709;29;20462;-81
2022/04/21 05:14:21;;;;;;;6.57;4.13;;;13.20;69.60;;;;;;4924213;29;20465;-80
2022/04/21 05:16:48;;;;;;;8.20;4.10;;;13.20;68.20;;;;;;4904644;29;20475;-81
2022/04/21 05:19:19;;;;;;;22.63;6.80;;;13.20;68.50;;;;;;4906854;29;20570;-82
2022/04/21 05:21:47;;;;;;;14.13;5.40;;;13.10;69.00;;;;;;4919646;29;20458;-79
2022/04/21 05:24:14;;;;;;;7.57;4.77;;;13.40;69.70;;;;;;4908577;29;20469;-81
2022/04/21 05:26:42;;;;;;;5.23;4.27;;;13.50;69.00;;;;;;4919472;29;20494;-79
2022/04/21 05:32:03;;;;;;;7.37;5.40;;;13.40;69.10;;;;;;4925553;29;20462;-80
2022/04/21 05:34:31;;;;;;;6.67;4.57;;;13.40;68.80;;;;;;4920897;29;21061;-83
2022/04/21 05:36:59;;;;;;;5.20;4.70;;;13.60;68.20;;;;;;4919179;29;20466;-82
2022/04/21 05:39:30;;;;;;;5.23;4.40;;;13.60;68.80;;;;;;4905026;29;20486;-83
2022/04/21 05:41:58;;;;;;;5.70;4.10;;;13.50;68.80;;;;;;4904667;29;20539;-82
2022/04/21 05:44:27;;;;;;;9.17;5.00;;;13.50;67.90;;;;;;4904067;29;20480;-81
2022/04/21 05:46:54;;;;;;;7.10;4.07;;;13.50;67.30;;;;;;4918431;29;20521;-81
2022/04/21 05:49:21;;;;;;;5.93;3.70;;;13.40;66.70;;;;;;4929666;28;20500;-80
2022/04/21 05:51:48;;;;;;;5.10;4.70;;;13.30;66.30;;;;;;4949419;28;20487;-80
2022/04/21 05:54:16;;;;;;;5.43;3.87;;;13.30;65.80;;;;;;4928757;28;20461;-81
2022/04/21 05:56:44;;;;;;;4.30;4.00;;;13.30;65.50;;;;;;4922054;28;20474;-80
2022/04/21 05:59:12;;;;;;;3.87;3.57;;;13.60;64.80;;;;;;4936112;28;20472;-81
2022/04/21 06:01:39;;;;;;;5.70;4.33;;;13.50;64.10;;;;;;4940865;28;20433;-79
2022/04/21 06:04:11;;;;;;;4.67;3.90;;;13.60;63.70;;;;;;4921054;29;20458;-81
2022/04/21 06:06:39;;;;;;;14.60;13.20;;;14.70;63.60;;;;;;4914838;29;20489;-82
2022/04/21 06:09:06;;;;;;;5.70;4.40;;;17.70;57.60;;;;;;4912564;29;21084;-82
2022/04/21 06:11:35;;;;;;;6.10;4.50;;;20.20;51.40;;;;;;4927434;29;20553;-81
2022/04/21 06:14:01;;;;;;;4.63;3.73;;;22.40;46.10;;;;;;4925845;29;20459;-82
2022/04/21 06:16:28;;;;;;;4.03;3.47;;;23.90;42.10;;;;;;4929053;29;20904;-82
2022/04/21 06:18:55;;;;;;;5.70;3.90;;;24.50;39.90;;;;;;4942280;23;20500;-81
2022/04/21 06:21:21;;;;;;;7.97;4.47;;;25.10;38.90;;;;;;4947938;28;20460;-82
2022/04/21 06:23:48;;;;;;;3.30;3.10;;;25.50;37.80;;;;;;4961530;28;20498;-81
2022/04/21 06:26:15;;;;;;;4.80;3.93;;;26.20;36.90;;;;;;4962064;28;20467;-81
2022/04/21 06:31:16;;;;;;;4.47;4.07;;;27.20;34.70;;;;;;4979670;28;20576;-82
2022/04/21 06:33:42;;;;;;;8.40;4.30;;;27.20;35.10;;;;;;4982844;28;20538;-81
2022/04/21 06:36:10;;;;;;;6.43;5.33;;;27.10;35.50;;;;;;4983063;28;20562;-81
2022/04/21 06:38:37;;;;;;;6.17;4.90;;;27.40;35.00;;;;;;4978642;28;20507;-81
2022/04/21 06:41:04;;;;;;;5.00;4.60;;;27.40;34.40;;;;;;4980180;28;20947;-80
2022/04/21 06:49:01;;;;;;;6.30;5.17;;;24.00;36.30;;;;;;4983045;28;20482;-81
2022/04/21 06:51:29;;;;;;;8.97;4.50;;;21.70;39.10;;;;;;4983786;28;20469;-80
2022/04/21 06:53:56;;;;;;;4.60;4.20;;;21.00;40.70;;;;;;4989335;28;20458;-83
2022/04/21 06:56:22;;;;;;;4.67;4.20;;;22.60;40.30;;;;;;4983107;28;20451;-81
2022/04/21 06:58:53;;;;;;;6.90;4.63;;;24.00;38.30;;;;;;4981793;28;20855;-80
2022/04/21 07:01:19;;;;;;;11.37;4.60;;;25.20;36.80;;;;;;4981446;28;20532;-81
2022/04/21 07:03:46;;;;;;;8.17;4.70;;;26.60;35.60;;;;;;4987845;28;20815;-81
2022/04/21 07:06:13;;;;;;;4.53;3.97;;;28.10;33.60;;;;;;4981782;28;20451;-81
2022/04/21 07:08:40;;;;;;;5.43;4.57;;;28.20;32.60;;;;;;4982061;28;20482;-81
2022/04/21 07:11:07;;;;;;;3.90;3.50;;;28.20;32.30;;;;;;4984574;28;20476;-81
2022/04/21 07:13:33;;;;;;;4.40;4.00;;;29.10;31.00;;;;;;4983456;28;20455;-82
2022/04/21 07:16:00;;;;;;;4.53;3.97;;;29.00;30.30;;;;;;4982863;28;20451;-80
2022/04/21 07:18:27;;;;;;;4.30;3.93;;;28.90;30.70;;;;;;4982638;28;20491;-81
2022/04/21 07:20:53;;;;;;;3.93;3.63;;;29.20;30.30;;;;;;4997905;28;20460;-82
2022/04/21 07:23:20;;;;;;;4.87;3.77;;;29.30;30.00;;;;;;4982682;28;20455;-82
2022/04/21 07:25:47;;;;;;;5.20;4.30;;;30.00;29.50;;;;;;4985505;28;20455;-82
2022/04/21 07:28:13;;;;;;;3.73;3.40;;;30.50;29.30;;;;;;4982828;28;20574;-82
2022/04/21 07:30:40;;;;;;;4.13;3.40;;;30.60;28.80;;;;;;4983671;28;20533;-82
2022/04/21 07:33:07;;;;;;;5.37;3.80;;;30.20;28.80;;;;;;4997056;28;20467;-82
2022/04/21 07:35:34;;;;;;;4.60;3.90;;;29.60;29.30;;;;;;4982754;28;20455;-82
2022/04/21 07:38:01;;;;;;;5.33;4.20;;;28.90;29.80;;;;;;4976504;28;20471;-81
2022/04/21 07:40:29;;;;;;;4.87;3.37;;;29.80;29.60;;;;;;4981528;28;20490;-82
2022/04/21 07:42:57;;;;;;;5.03;3.87;;;29.80;29.20;;;;;;4984470;28;20534;-82
2022/04/21 07:45:25;;;;;;;5.33;4.37;;;29.30;29.40;;;;;;4983908;28;20455;-82
2022/04/21 07:47:52;;;;;;;5.10;3.80;;;28.70;29.80;;;;;;4983247;28;20489;-82
2022/04/21 07:50:18;;;;;;;4.10;3.70;;;28.70;30.20;;;;;;4981511;28;20975;-82
2022/04/21 07:53:13;;;;;;;3.70;3.33;;;28.90;30.00;;;;;;4982129;28;20463;-80
2022/04/21 07:55:46;;;;;;;5.77;3.80;;;30.30;29.20;;;;;;4984445;28;20458;-81
2022/04/21 07:58:14;;;;;;;4.27;3.70;;;30.60;29.00;;;;;;4984929;28;20466;-81
2022/04/21 08:00:41;;;;;;;3.37;3.07;;;30.70;28.60;;;;;;4987151;28;20486;-82
2022/04/21 08:03:11;;;;;;;4.93;4.00;;;30.30;28.60;;;;;;4981866;28;20451;-81
2022/04/21 08:05:38;;;;;;;4.37;3.17;;;29.40;29.40;;;;;;4983040;28;20451;-82
2022/04/21 08:08:05;;;;;;;3.73;3.40;;;29.30;29.10;;;;;;4981693;28;21075;-82
2022/04/21 08:10:31;;;;;;;4.23;2.90;;;28.00;29.80;;;;;;4983160;28;21196;-82
2022/04/21 08:12:59;;;;;;;3.47;3.13;;;26.90;30.70;;;;;;4987807;28;20447;-81
2022/04/21 08:15:33;;;;;;;3.80;3.50;;;27.10;31.50;;;;;;4989831;28;20443;-81
2022/04/21 08:18:03;;;;;;;3.63;3.33;;;27.40;31.40;;;;;;4987502;28;20465;-81
2022/04/21 08:20:33;;;;;;;5.40;4.10;;;27.80;31.20;;;;;;5002524;28;20474;-81
2022/04/21 08:23:02;;;;;;;4.13;3.73;;;28.10;31.30;;;;;;4985434;28;20459;-82
2022/04/21 08:34:25;;;;;;;2.90;2.70;;;26.00;31.80;;;;;;4988513;28;20490;-81
2022/04/21 08:36:54;;;;;;;3.00;2.23;;;26.20;31.60;;;;;;4985711;28;20467;-81
2022/04/21 08:39:20;;;;;;;3.87;2.57;;;26.90;30.20;;;;;;4985012;28;20470;-82
2022/04/21 08:41:51;;;;;;;2.27;2.07;;;26.50;30.80;;;;;;4980716;28;20475;-82
2022/04/21 08:44:19;;;;;;;2.50;2.30;;;26.50;30.10;;;;;;4989501;28;20467;-83
2022/04/21 08:46:48;;;;;;;4.03;2.80;;;27.90;29.70;;;;;;4984762;28;20459;-79
2022/04/21 08:49:18;;;;;;;3.80;2.00;;;28.50;28.60;;;;;;4990779;28;20466;-80
2022/04/21 08:51:44;;;;;;;3.27;2.13;;;27.90;28.90;;;;;;4988211;28;20462;-83
2022/04/21 08:54:11;;;;;;;2.30;2.10;;;28.20;28.10;;;;;;4988520;28;20439;-82
2022/04/21 08:56:38;;;;;;;3.67;3.37;;;28.40;27.70;;;;;;4985118;28;20459;-81
2022/04/21 08:59:05;;;;;;;2.50;2.30;;;27.60;28.40;;;;;;4982822;28;20479;-81
2022/04/21 09:01:33;;;;;;;4.90;2.63;;;27.40;28.50;;;;;;4980157;28;20451;-80
2022/04/21 09:04:01;;;;;;;3.27;2.20;;;27.10;28.40;;;;;;4979809;28;20483;-81
2022/04/21 09:06:29;;;;;;;3.73;2.50;;;26.90;28.80;;;;;;4980980;28;20463;-81
2022/04/21 09:09:17;;;;;;;4.03;2.43;;;26.80;28.80;;;;;;4998314;28;20499;-81
2022/04/21 09:11:46;;;;;;;2.67;2.43;;;27.70;28.70;;;;;;4979059;28;20462;-82
2022/04/21 09:14:15;;;;;;;2.40;2.20;;;29.60;27.20;;;;;;4983960;28;20469;-80
2022/04/21 09:16:47;;;;;;;1.73;1.63;;;29.40;25.90;;;;;;4986873;28;21037;-80
2022/04/21 09:19:27;;;;;;;3.73;1.83;;;29.00;25.90;;;;;;5006138;23;20520;-81
2022/04/21 09:25:47;;;;;;;4.70;1.83;;;26.40;27.90;;;;;;4986765;28;20524;-81
2022/04/21 09:28:26;;;;;;;2.10;1.93;;;27.70;27.40;;;;;;5000023;28;20455;-81
2022/04/21 09:30:55;;;;;;;2.20;2.00;;;27.50;27.90;;;;;;4983773;28;20595;-81
2022/04/21 09:33:33;;;;;;;2.00;1.80;;;27.50;28.20;;;;;;4996355;28;20483;-79
2022/04/21 09:36:02;;;;;;;6.20;1.97;;;28.00;27.00;;;;;;4986761;28;20452;-81
2022/04/21 09:38:29;;;;;;;2.60;2.00;;;27.50;27.30;;;;;;4988888;28;20452;-81
2022/04/21 09:41:03;;;;;;;2.30;1.93;;;26.80;27.90;;;;;;4987833;28;20463;-81
2022/04/21 09:43:37;;;;;;;2.87;1.90;;;27.00;28.20;;;;;;4972529;28;20459;-80
2022/04/21 09:46:10;;;;;;;1.93;1.83;;;27.40;28.00;;;;;;4986887;28;20945;-81
2022/04/21 09:56:41;;;;;;;2.30;2.10;;;28.00;27.10;;;;;;4947255;29;20469;-80
2022/04/21 10:00:09;;;;;;;3.00;2.00;;;26.60;28.10;;;;;;4967984;28;20481;-80
2022/04/21 10:06:59;;;;;;;3.30;2.10;;;27.40;28.00;;;;;;4948930;28;20424;-80
2022/04/21 10:09:28;;;;;;;1.93;1.83;;;27.80;27.40;;;;;;4946676;28;21092;-81
2022/04/21 10:11:58;;;;;;;2.97;2.10;;;26.90;27.70;;;;;;4963386;28;20456;-81
2022/04/21 10:14:27;;;;;;;1.93;1.83;;;25.90;28.60;;;;;;4948998;28;20526;-81
2022/04/21 10:16:54;;;;;;;2.37;2.00;;;25.60;29.00;;;;;;4946915;28;20484;-80
2022/04/21 10:22:00;;;;;;;3.20;2.57;;;25.60;28.60;;;;;;4940311;29;20504;-82
2022/04/21 10:24:29;;;;;;;2.10;2.00;;;25.40;28.80;;;;;;4933060;28;20476;-80
2022/04/21 10:26:57;;;;;;;2.00;1.90;;;25.50;29.20;;;;;;4934138;28;20461;-81
2022/04/21 10:29:27;;;;;;;2.93;2.70;;;25.00;28.90;;;;;;4941545;28;20489;-81
2022/04/21 10:31:59;;;;;;;1.77;1.67;;;24.50;29.40;;;;;;4923785;29;20469;-80
2022/04/21 10:34:42;;;;;;;2.13;1.67;;;23.70;29.60;;;;;;4928925;29;20453;-80
2022/04/21 10:37:13;;;;;;;2.23;1.97;;;23.80;31.10;;;;;;4925082;28;21701;-80
2022/04/21 10:40:00;;;;;;;3.20;2.00;;;24.20;30.30;;;;;;4956911;23;20498;-80
2022/04/21 10:42:27;;;;;;;2.03;1.80;;;23.70;30.70;;;;;;4984058;28;20470;-81
2022/04/21 10:44:55;;;;;;;2.40;2.20;;;23.60;31.00;;;;;;5000285;28;20567;-81
2022/04/21 10:47:38;;;;;;;3.97;2.50;;;23.30;30.30;;;;;;4978550;28;21049;-80
2022/04/21 10:50:19;;;;;;;5.43;1.93;;;23.20;30.90;;;;;;4980973;28;20485;-80
2022/04/21 10:58:36;;;;;;;1.50;1.40;;;22.50;31.30;;;;;;4964939;28;20469;-81
2022/04/21 11:01:25;;;;;;;4.47;2.20;;;21.90;32.00;;;;;;4965399;28;20467;-81
2022/04/21 11:04:09;;;;;;;1.90;1.80;;;21.80;32.70;;;;;;4973415;28;20456;-82
2022/04/21 11:06:41;;;;;;;2.10;1.80;;;22.10;32.20;;;;;;4967528;28;20457;-80
2022/04/21 11:09:36;;;;;;;1.97;1.60;;;22.30;32.10;;;;;;4957990;28;20482;-80
2022/04/21 11:12:43;;;;;;;2.97;1.93;;;22.30;32.70;;;;;;4972318;28;20543;-81
2022/04/21 11:15:50;;;;;;;2.20;1.60;;;23.00;32.90;;;;;;4954018;28;20463;-80
2022/04/21 11:18:30;;;;;;;5.20;2.53;;;23.40;32.20;;;;;;4952293;28;20574;-80
2022/04/21 11:21:27;;;;;;;2.70;2.03;;;22.90;32.80;;;;;;4934683;28;20455;-80
2022/04/21 11:23:53;;;;;;;4.00;1.90;;;22.90;33.30;;;;;;4968385;28;20448;-80
2022/04/21 11:26:30;;;;;;;2.63;2.20;;;22.80;34.40;;;;;;4973020;28;20463;-81
2022/04/21 11:29:02;;;;;;;2.37;2.17;;;22.70;34.00;;;;;;4968890;28;20494;-81
2022/04/21 11:31:29;;;;;;;2.33;2.13;;;23.00;33.40;;;;;;4977636;28;20443;-80
2022/04/21 11:34:03;;;;;;;3.70;2.50;;;23.20;33.60;;;;;;4974485;28;20698;-80
2022/04/21 11:36:40;;;;;;;4.83;2.67;;;23.40;33.30;;;;;;4957041;28;20464;-81
2022/04/21 11:39:08;;;;;;;6.60;2.57;;;23.40;33.60;;;;;;4975949;28;20495;-81
2022/04/21 11:41:42;;;;;;;3.50;2.40;;;23.80;33.90;;;;;;4976746;28;20514;-82
2022/04/21 11:44:10;;;;;;;4.17;2.30;;;23.50;33.00;;;;;;4972216;28;20527;-80
2022/04/21 11:46:39;;;;;;;2.47;2.27;;;23.00;33.60;;;;;;4974983;28;20481;-82
2022/04/21 11:49:08;;;;;;;2.93;2.47;;;22.80;34.90;;;;;;4954413;28;20581;-81
2022/04/21 11:51:35;;;;;;;4.80;2.40;;;23.70;34.40;;;;;;4962333;28;20451;-81
2022/04/21 11:54:07;;;;;;;2.70;2.20;;;23.70;33.80;;;;;;4964766;28;20461;-81
2022/04/21 11:56:38;;;;;;;3.50;2.20;;;23.60;33.80;;;;;;4964693;28;20452;-80
2022/04/21 11:59:09;;;;;;;2.30;2.10;;;23.60;34.50;;;;;;4976446;28;20474;-82
2022/04/21 12:08:31;;;;;;;2.83;1.97;;;23.10;36.20;;;;;;4936561;28;20491;-80
2022/04/21 12:10:58;;;;;;;2.60;2.40;;;23.30;35.70;;;;;;4979191;28;21160;-80
2022/04/21 12:13:25;;;;;;;4.43;2.57;;;23.10;36.40;;;;;;4962940;28;20452;-80
2022/04/21 12:15:53;;;;;;;4.40;2.50;;;22.40;36.20;;;;;;4962931;28;20471;-82
2022/04/21 12:18:21;;;;;;;2.70;2.50;;;22.30;36.90;;;;;;4962497;28;20463;-81
2022/04/21 12:20:55;;;;;;;6.23;2.53;;;22.30;36.50;;;;;;4979390;28;20470;-80
2022/04/21 12:23:25;;;;;;;2.97;2.50;;;22.60;36.90;;;;;;4978870;28;20463;-81
2022/04/21 12:25:52;;;;;;;3.70;2.50;;;23.00;37.00;;;;;;4980534;28;20466;-81
2022/04/21 12:28:21;;;;;;;4.63;2.27;;;23.10;37.20;;;;;;4980854;28;21036;-81
2022/04/21 12:30:48;;;;;;;3.73;2.37;;;23.30;36.00;;;;;;4963123;28;20491;-82
2022/04/21 12:33:15;;;;;;;5.17;2.60;;;23.00;35.60;;;;;;4991836;28;20435;-80
2022/04/21 12:35:49;;;;;;;4.33;2.33;;;22.50;35.90;;;;;;4972628;28;20552;-81
2022/04/21 12:41:01;;;;;;;3.97;2.30;;;22.60;36.80;;;;;;4967005;28;20484;-80
2022/04/21 12:43:29;;;;;;;3.30;2.50;;;22.80;36.60;;;;;;4969008;28;20471;-80
2022/04/21 12:46:00;;;;;;;3.03;2.40;;;23.40;36.60;;;;;;4962042;28;20441;-80
2022/04/21 12:48:28;;;;;;;5.60;2.37;;;24.00;35.40;;;;;;4964474;28;20690;-81
2022/04/21 12:50:59;;;;;;;3.07;2.27;;;24.10;34.80;;;;;;4954791;29;20449;-82
2022/04/21 12:53:31;;;;;;;3.03;2.13;;;24.00;35.50;;;;;;4946255;29;20488;-79
2022/04/21 12:56:09;;;;;;;4.33;2.03;;;25.30;34.30;;;;;;4928697;29;20468;-79
2022/04/21 12:58:36;;;;;;;6.60;3.23;;;25.00;34.10;;;;;;4943398;28;20464;-80
2022/04/21 13:01:05;;;;;;;2.97;2.43;;;25.20;33.60;;;;;;4937442;29;20495;-78
2022/04/21 13:03:32;;;;;;;2.83;2.00;;;24.50;34.10;;;;;;4944150;28;20463;-80
2022/04/21 13:05:59;;;;;;;2.40;2.20;;;24.70;33.60;;;;;;4956274;28;20445;-81
2022/04/21 13:08:28;;;;;;;2.30;2.10;;;24.30;34.80;;;;;;4966696;28;20493;-81
2022/04/21 13:10:56;;;;;;;2.50;2.10;;;23.80;35.70;;;;;;4961467;28;20469;-81
2022/04/21 13:13:24;;;;;;;2.67;2.10;;;23.40;36.40;;;;;;4939376;28;20459;-80
2022/04/21 13:15:51;;;;;;;4.33;1.50;;;23.00;36.60;;;;;;4970403;28;20479;-79
2022/04/21 13:18:18;;;;;;;2.53;2.33;;;22.80;37.00;;;;;;4969731;28;20464;-81
2022/04/21 13:23:31;;;;;;;4.97;2.37;;;22.20;38.40;;;;;;4951967;29;20453;-80
2022/04/21 13:26:00;;;;;;;2.40;1.97;;;22.60;38.00;;;;;;4951068;28;20453;-79
2022/04/21 13:28:47;;;;;;;1.87;1.77;;;22.90;38.10;;;;;;4949258;28;20492;-81
2022/04/21 13:34:02;;;;;;;2.03;1.83;;;24.00;36.30;;;;;;4953626;29;20467;-81
2022/04/21 13:36:29;;;;;;;3.63;1.93;;;24.10;36.70;;;;;;4950947;28;21426;-82
2022/04/21 13:38:58;;;;;;;2.57;1.90;;;24.10;37.50;;;;;;4978187;23;20446;-81
2022/04/21 13:42:21;;;;;;;4.20;2.03;;;24.10;36.50;;;;;;4931687;29;20451;-82
2022/04/21 13:44:52;;;;;;;3.70;2.83;;;24.00;36.70;;;;;;4917841;29;20458;-81
2022/04/21 13:47:39;;;;;;;3.07;1.90;;;24.60;35.70;;;;;;4928289;29;20462;-80
2022/04/21 13:50:06;;;;;;;6.10;1.90;;;24.50;36.10;;;;;;5194407;23;20861;-80
2022/04/21 13:52:35;;;;;;;2.53;2.23;;;24.90;35.60;;;;;;4968017;28;20464;-79
2022/04/21 13:55:02;;;;;;;3.20;1.67;;;24.50;35.70;;;;;;4952342;28;20519;-82
2022/04/21 13:57:30;;;;;;;2.17;2.00;;;24.30;35.60;;;;;;4950351;28;20574;-81
2022/04/21 13:59:58;;;;;;;2.73;1.60;;;24.50;36.30;;;;;;4949156;28;20484;-80
2022/04/21 14:02:26;;;;;;;3.03;1.83;;;24.10;35.70;;;;;;4948404;28;20609;-81
2022/04/21 14:04:54;;;;;;;2.60;2.27;;;23.50;35.80;;;;;;4949622;28;20467;-80
2022/04/21 14:07:22;;;;;;;5.10;2.10;;;23.60;35.70;;;;;;4946538;28;20488;-80
2022/04/21 14:09:50;;;;;;;5.50;1.50;;;23.40;35.80;;;;;;4949856;28;20488;-82
2022/04/21 14:12:18;;;;;;;3.83;3.43;;;23.10;36.30;;;;;;4964881;28;20969;-80
2022/04/21 14:14:49;;;;;;;6.70;1.63;;;23.30;36.50;;;;;;4947678;28;20556;-79
2022/04/21 14:17:17;;;;;;;2.90;2.10;;;23.40;35.90;;;;;;4951315;28;20495;-80
2022/04/21 14:19:43;;;;;;;4.07;3.07;;;23.20;36.30;;;;;;4963100;28;20956;-81